sensor_id;sensor_type;location;lat;lon;timestamp;P1;durP1;ratioP1;P2;durP2;ratioP2
13959;SDS011;7052;51.050;3.716;2023-03-11T00:00:24;6.83;;;2.30;;
13959;SDS011;7052;51.050;3.716;2023-03-11T00:02:57;9.17;;;2.57;;
13959;SDS011;7052;51.050;3.716;2023-03-11T00:05:26;7.67;;;2.30;;
13959;SDS011;7052;51.050;3.716;2023-03-11T00:07:57;7.23;;;2.87;;
13959;SDS011;7052;51.050;3.716;2023-03-11T00:10:26;5.40;;;2.87;;
13959;SDS011;7052;51.050;3.716;2023-03-11T00:12:57;5.67;;;2.57;;
13959;SDS011;7052;51.050;3.716;2023-03-11T00:15:25;6.17;;;2.40;;
13959;SDS011;7052;51.050;3.716;2023-03-11T00:17:52;7.33;;;2.70;;
13959;SDS011;7052;51.050;3.716;2023-03-11T00:20:21;9.77;;;2.90;;
13959;SDS011;7052;51.050;3.716;2023-03-11T00:22:51;5.03;;;2.90;;
13959;SDS011;7052;51.050;3.716;2023-03-11T00:25:22;10.47;;;3.00;;
13959;SDS011;7052;51.050;3.716;2023-03-11T00:27:50;5.67;;;2.63;;
13959;SDS011;7052;51.050;3.716;2023-03-11T00:30:19;6.23;;;2.40;;
13959;SDS011;7052;51.050;3.716;2023-03-11T00:32:49;6.27;;;2.60;;
13959;SDS011;7052;51.050;3.716;2023-03-11T00:35:18;4.93;;;2.50;;
13959;SDS011;7052;51.050;3.716;2023-03-11T00:37:46;7.23;;;2.67;;
13959;SDS011;7052;51.050;3.716;2023-03-11T00:40:19;7.77;;;2.73;;
13959;SDS011;7052;51.050;3.716;2023-03-11T00:42:46;5.10;;;2.40;;
13959;SDS011;7052;51.050;3.716;2023-03-11T00:45:13;7.03;;;2.70;;
13959;SDS011;7052;51.050;3.716;2023-03-11T00:47:46;5.90;;;2.63;;
13959;SDS011;7052;51.050;3.716;2023-03-11T00:50:16;5.30;;;2.60;;
13959;SDS011;7052;51.050;3.716;2023-03-11T00:52:45;11.37;;;3.07;;
13959;SDS011;7052;51.050;3.716;2023-03-11T00:55:18;7.33;;;2.73;;
13959;SDS011;7052;51.050;3.716;2023-03-11T00:57:50;5.13;;;2.40;;
13959;SDS011;7052;51.050;3.716;2023-03-11T01:00:18;5.43;;;2.77;;
13959;SDS011;7052;51.050;3.716;2023-03-11T01:02:47;5.03;;;2.60;;
13959;SDS011;7052;51.050;3.716;2023-03-11T01:05:14;5.77;;;2.73;;
13959;SDS011;7052;51.050;3.716;2023-03-11T01:07:46;6.33;;;2.40;;
13959;SDS011;7052;51.050;3.716;2023-03-11T01:10:14;8.07;;;2.70;;
13959;SDS011;7052;51.050;3.716;2023-03-11T01:12:43;9.27;;;2.90;;
13959;SDS011;7052;51.050;3.716;2023-03-11T01:15:14;4.27;;;2.60;;
13959;SDS011;7052;51.050;3.716;2023-03-11T01:17:47;5.17;;;2.67;;
13959;SDS011;7052;51.050;3.716;2023-03-11T01:20:16;4.50;;;2.60;;
13959;SDS011;7052;51.050;3.716;2023-03-11T01:22:44;7.77;;;2.83;;
13959;SDS011;7052;51.050;3.716;2023-03-11T01:25:11;4.40;;;2.43;;
13959;SDS011;7052;51.050;3.716;2023-03-11T01:27:40;3.97;;;2.50;;
13959;SDS011;7052;51.050;3.716;2023-03-11T01:30:11;6.97;;;2.60;;
13959;SDS011;7052;51.050;3.716;2023-03-11T01:32:43;5.73;;;2.53;;
13959;SDS011;7052;51.050;3.716;2023-03-11T01:35:14;9.27;;;2.50;;
13959;SDS011;7052;51.050;3.716;2023-03-11T01:37:43;5.97;;;2.40;;
13959;SDS011;7052;51.050;3.716;2023-03-11T01:40:12;6.13;;;2.10;;
13959;SDS011;7052;51.050;3.716;2023-03-11T01:42:45;4.53;;;2.50;;
13959;SDS011;7052;51.050;3.716;2023-03-11T01:45:28;3.40;;;1.90;;
13959;SDS011;7052;51.050;3.716;2023-03-11T01:48:02;5.13;;;2.17;;
13959;SDS011;7052;51.050;3.716;2023-03-11T01:50:31;3.87;;;2.10;;
13959;SDS011;7052;51.050;3.716;2023-03-11T01:53:01;3.20;;;1.70;;
13959;SDS011;7052;51.050;3.716;2023-03-11T01:55:28;3.03;;;1.77;;
13959;SDS011;7052;51.050;3.716;2023-03-11T01:57:58;6.30;;;3.77;;
13959;SDS011;7052;51.050;3.716;2023-03-11T02:00:32;3.37;;;1.90;;
13959;SDS011;7052;51.050;3.716;2023-03-11T02:03:06;4.43;;;2.27;;
13959;SDS011;7052;51.050;3.716;2023-03-11T02:05:38;3.57;;;1.70;;
13959;SDS011;7052;51.050;3.716;2023-03-11T02:08:06;4.63;;;1.77;;
13959;SDS011;7052;51.050;3.716;2023-03-11T02:10:36;4.20;;;1.80;;
13959;SDS011;7052;51.050;3.716;2023-03-11T02:13:04;3.77;;;1.53;;
13959;SDS011;7052;51.050;3.716;2023-03-11T02:15:32;2.37;;;1.53;;
13959;SDS011;7052;51.050;3.716;2023-03-11T02:18:00;4.37;;;1.60;;
13959;SDS011;7052;51.050;3.716;2023-03-11T02:20:31;3.87;;;1.70;;
13959;SDS011;7052;51.050;3.716;2023-03-11T02:23:04;5.70;;;1.90;;
13959;SDS011;7052;51.050;3.716;2023-03-11T02:25:33;2.03;;;1.57;;
13959;SDS011;7052;51.050;3.716;2023-03-11T02:28:06;5.27;;;1.90;;
13959;SDS011;7052;51.050;3.716;2023-03-11T02:30:36;3.70;;;1.80;;
13959;SDS011;7052;51.050;3.716;2023-03-11T02:33:07;4.43;;;1.73;;
13959;SDS011;7052;51.050;3.716;2023-03-11T02:35:34;4.40;;;1.60;;
13959;SDS011;7052;51.050;3.716;2023-03-11T02:38:02;4.00;;;1.60;;
13959;SDS011;7052;51.050;3.716;2023-03-11T02:40:34;4.30;;;1.70;;
13959;SDS011;7052;51.050;3.716;2023-03-11T02:43:07;3.83;;;1.57;;
13959;SDS011;7052;51.050;3.716;2023-03-11T02:45:37;4.73;;;1.77;;
13959;SDS011;7052;51.050;3.716;2023-03-11T02:48:06;4.90;;;1.60;;
13959;SDS011;7052;51.050;3.716;2023-03-11T02:50:40;5.03;;;1.70;;
13959;SDS011;7052;51.050;3.716;2023-03-11T02:53:09;4.80;;;1.80;;
13959;SDS011;7052;51.050;3.716;2023-03-11T02:55:36;4.60;;;2.00;;
13959;SDS011;7052;51.050;3.716;2023-03-11T02:58:03;4.10;;;1.97;;
13959;SDS011;7052;51.050;3.716;2023-03-11T03:00:36;4.60;;;1.60;;
13959;SDS011;7052;51.050;3.716;2023-03-11T03:03:03;4.37;;;1.80;;
13959;SDS011;7052;51.050;3.716;2023-03-11T03:05:36;5.53;;;2.07;;
13959;SDS011;7052;51.050;3.716;2023-03-11T03:08:03;2.83;;;1.80;;
13959;SDS011;7052;51.050;3.716;2023-03-11T03:10:31;4.10;;;2.13;;
13959;SDS011;7052;51.050;3.716;2023-03-11T03:12:59;6.90;;;2.17;;
13959;SDS011;7052;51.050;3.716;2023-03-11T03:15:35;4.53;;;2.30;;
13959;SDS011;7052;51.050;3.716;2023-03-11T03:18:03;7.37;;;2.10;;
13959;SDS011;7052;51.050;3.716;2023-03-11T03:20:30;3.67;;;2.00;;
13959;SDS011;7052;51.050;3.716;2023-03-11T03:22:57;5.70;;;2.07;;
13959;SDS011;7052;51.050;3.716;2023-03-11T03:25:31;4.27;;;1.90;;
13959;SDS011;7052;51.050;3.716;2023-03-11T03:27:58;4.60;;;2.10;;
13959;SDS011;7052;51.050;3.716;2023-03-11T03:30:25;4.80;;;2.17;;
13959;SDS011;7052;51.050;3.716;2023-03-11T03:32:58;3.77;;;2.20;;
13959;SDS011;7052;51.050;3.716;2023-03-11T03:35:25;8.50;;;2.70;;
13959;SDS011;7052;51.050;3.716;2023-03-11T03:37:53;5.97;;;2.50;;
13959;SDS011;7052;51.050;3.716;2023-03-11T03:40:20;5.23;;;2.40;;
13959;SDS011;7052;51.050;3.716;2023-03-11T03:42:48;5.47;;;2.27;;
13959;SDS011;7052;51.050;3.716;2023-03-11T03:45:15;7.03;;;2.50;;
13959;SDS011;7052;51.050;3.716;2023-03-11T03:47:42;3.97;;;2.33;;
13959;SDS011;7052;51.050;3.716;2023-03-11T03:50:11;6.87;;;2.83;;
13959;SDS011;7052;51.050;3.716;2023-03-11T03:52:43;7.17;;;2.50;;
13959;SDS011;7052;51.050;3.716;2023-03-11T03:55:10;7.40;;;2.67;;
13959;SDS011;7052;51.050;3.716;2023-03-11T03:57:41;4.17;;;2.30;;
13959;SDS011;7052;51.050;3.716;2023-03-11T04:00:09;5.70;;;2.80;;
13959;SDS011;7052;51.050;3.716;2023-03-11T04:02:36;6.30;;;3.07;;
13959;SDS011;7052;51.050;3.716;2023-03-11T04:05:04;8.63;;;2.73;;
13959;SDS011;7052;51.050;3.716;2023-03-11T04:07:34;5.33;;;2.83;;
13959;SDS011;7052;51.050;3.716;2023-03-11T04:10:02;4.47;;;2.50;;
13959;SDS011;7052;51.050;3.716;2023-03-11T04:12:30;7.07;;;2.90;;
13959;SDS011;7052;51.050;3.716;2023-03-11T04:14:59;6.10;;;3.30;;
13959;SDS011;7052;51.050;3.716;2023-03-11T04:17:29;6.47;;;2.80;;
13959;SDS011;7052;51.050;3.716;2023-03-11T04:19:58;9.97;;;3.00;;
13959;SDS011;7052;51.050;3.716;2023-03-11T04:22:28;6.10;;;2.77;;
13959;SDS011;7052;51.050;3.716;2023-03-11T04:24:58;5.70;;;3.00;;
13959;SDS011;7052;51.050;3.716;2023-03-11T04:27:25;8.00;;;3.10;;
13959;SDS011;7052;51.050;3.716;2023-03-11T04:29:52;5.90;;;3.20;;
13959;SDS011;7052;51.050;3.716;2023-03-11T04:32:19;5.87;;;3.43;;
13959;SDS011;7052;51.050;3.716;2023-03-11T04:34:47;15.10;;;3.43;;
13959;SDS011;7052;51.050;3.716;2023-03-11T04:37:17;9.30;;;3.50;;
13959;SDS011;7052;51.050;3.716;2023-03-11T04:39:45;8.03;;;3.30;;
13959;SDS011;7052;51.050;3.716;2023-03-11T04:42:13;4.80;;;3.23;;
13959;SDS011;7052;51.050;3.716;2023-03-11T04:44:40;8.77;;;3.73;;
13959;SDS011;7052;51.050;3.716;2023-03-11T04:47:09;6.53;;;3.40;;
13959;SDS011;7052;51.050;3.716;2023-03-11T04:49:38;7.27;;;3.60;;
13959;SDS011;7052;51.050;3.716;2023-03-11T04:52:05;11.10;;;3.57;;
13959;SDS011;7052;51.050;3.716;2023-03-11T04:54:32;6.17;;;3.47;;
13959;SDS011;7052;51.050;3.716;2023-03-11T04:56:59;8.10;;;3.77;;
13959;SDS011;7052;51.050;3.716;2023-03-11T04:59:27;9.10;;;3.37;;
13959;SDS011;7052;51.050;3.716;2023-03-11T05:01:54;11.67;;;3.50;;
13959;SDS011;7052;51.050;3.716;2023-03-11T05:04:21;8.53;;;3.47;;
13959;SDS011;7052;51.050;3.716;2023-03-11T05:06:48;11.03;;;4.03;;
13959;SDS011;7052;51.050;3.716;2023-03-11T05:09:16;7.07;;;3.70;;
13959;SDS011;7052;51.050;3.716;2023-03-11T05:11:45;6.20;;;3.87;;
13959;SDS011;7052;51.050;3.716;2023-03-11T05:14:15;5.43;;;3.37;;
13959;SDS011;7052;51.050;3.716;2023-03-11T05:16:44;6.37;;;3.47;;
13959;SDS011;7052;51.050;3.716;2023-03-11T05:19:11;5.37;;;3.40;;
13959;SDS011;7052;51.050;3.716;2023-03-11T05:21:59;7.03;;;4.03;;
13959;SDS011;7052;51.050;3.716;2023-03-11T05:24:27;8.20;;;3.80;;
13959;SDS011;7052;51.050;3.716;2023-03-11T05:26:54;6.43;;;3.30;;
13959;SDS011;7052;51.050;3.716;2023-03-11T05:29:22;8.50;;;3.47;;
13959;SDS011;7052;51.050;3.716;2023-03-11T05:31:52;9.37;;;3.50;;
13959;SDS011;7052;51.050;3.716;2023-03-11T05:34:19;9.67;;;3.40;;
13959;SDS011;7052;51.050;3.716;2023-03-11T05:36:47;6.67;;;3.30;;
13959;SDS011;7052;51.050;3.716;2023-03-11T05:39:16;9.83;;;3.20;;
13959;SDS011;7052;51.050;3.716;2023-03-11T05:41:44;9.97;;;4.20;;
13959;SDS011;7052;51.050;3.716;2023-03-11T05:44:12;14.10;;;3.90;;
13959;SDS011;7052;51.050;3.716;2023-03-11T05:46:39;9.27;;;3.63;;
13959;SDS011;7052;51.050;3.716;2023-03-11T05:49:07;7.23;;;3.67;;
13959;SDS011;7052;51.050;3.716;2023-03-11T05:51:34;9.87;;;4.07;;
13959;SDS011;7052;51.050;3.716;2023-03-11T05:54:01;7.47;;;3.83;;
13959;SDS011;7052;51.050;3.716;2023-03-11T05:56:28;9.77;;;3.70;;
13959;SDS011;7052;51.050;3.716;2023-03-11T05:59:06;11.13;;;3.53;;
13959;SDS011;7052;51.050;3.716;2023-03-11T06:01:38;9.53;;;3.30;;
13959;SDS011;7052;51.050;3.716;2023-03-11T06:04:11;9.17;;;3.30;;
13959;SDS011;7052;51.050;3.716;2023-03-11T06:06:38;6.60;;;3.40;;
13959;SDS011;7052;51.050;3.716;2023-03-11T06:09:05;10.27;;;3.93;;
13959;SDS011;7052;51.050;3.716;2023-03-11T06:11:36;8.80;;;3.73;;
13959;SDS011;7052;51.050;3.716;2023-03-11T06:14:03;7.00;;;3.63;;
13959;SDS011;7052;51.050;3.716;2023-03-11T06:16:30;7.53;;;3.63;;
13959;SDS011;7052;51.050;3.716;2023-03-11T06:18:57;10.23;;;3.97;;
13959;SDS011;7052;51.050;3.716;2023-03-11T06:21:26;6.97;;;3.87;;
13959;SDS011;7052;51.050;3.716;2023-03-11T06:23:53;14.33;;;4.57;;
13959;SDS011;7052;51.050;3.716;2023-03-11T06:26:22;9.10;;;3.97;;
13959;SDS011;7052;51.050;3.716;2023-03-11T06:28:52;6.77;;;3.17;;
13959;SDS011;7052;51.050;3.716;2023-03-11T06:31:19;6.93;;;3.57;;
13959;SDS011;7052;51.050;3.716;2023-03-11T06:33:48;11.27;;;3.50;;
13959;SDS011;7052;51.050;3.716;2023-03-11T06:36:22;9.10;;;4.07;;
13959;SDS011;7052;51.050;3.716;2023-03-11T06:38:54;9.47;;;4.13;;
13959;SDS011;7052;51.050;3.716;2023-03-11T06:41:22;7.67;;;3.70;;
13959;SDS011;7052;51.050;3.716;2023-03-11T06:43:51;9.27;;;4.03;;
13959;SDS011;7052;51.050;3.716;2023-03-11T06:46:21;9.03;;;4.20;;
13959;SDS011;7052;51.050;3.716;2023-03-11T06:48:48;10.53;;;4.00;;
13959;SDS011;7052;51.050;3.716;2023-03-11T06:51:16;8.17;;;4.40;;
13959;SDS011;7052;51.050;3.716;2023-03-11T06:53:46;10.27;;;3.73;;
13959;SDS011;7052;51.050;3.716;2023-03-11T06:56:18;7.60;;;4.17;;
13959;SDS011;7052;51.050;3.716;2023-03-11T06:58:45;10.20;;;4.70;;
13959;SDS011;7052;51.050;3.716;2023-03-11T07:01:15;7.50;;;4.43;;
13959;SDS011;7052;51.050;3.716;2023-03-11T07:03:42;9.57;;;4.97;;
13959;SDS011;7052;51.050;3.716;2023-03-11T07:06:12;7.70;;;4.53;;
13959;SDS011;7052;51.050;3.716;2023-03-11T07:08:41;9.37;;;4.83;;
13959;SDS011;7052;51.050;3.716;2023-03-11T07:11:09;11.73;;;4.80;;
13959;SDS011;7052;51.050;3.716;2023-03-11T07:13:41;8.20;;;4.63;;
13959;SDS011;7052;51.050;3.716;2023-03-11T07:16:10;10.23;;;5.23;;
13959;SDS011;7052;51.050;3.716;2023-03-11T07:18:41;7.60;;;5.30;;
13959;SDS011;7052;51.050;3.716;2023-03-11T07:21:09;9.50;;;5.07;;
13959;SDS011;7052;51.050;3.716;2023-03-11T07:23:39;10.23;;;6.27;;
13959;SDS011;7052;51.050;3.716;2023-03-11T07:26:08;11.97;;;5.90;;
13959;SDS011;7052;51.050;3.716;2023-03-11T07:28:35;7.20;;;5.03;;
13959;SDS011;7052;51.050;3.716;2023-03-11T07:31:12;6.63;;;4.77;;
13959;SDS011;7052;51.050;3.716;2023-03-11T07:33:41;9.43;;;5.97;;
13959;SDS011;7052;51.050;3.716;2023-03-11T07:36:15;7.80;;;4.90;;
13959;SDS011;7052;51.050;3.716;2023-03-11T07:38:46;9.07;;;4.60;;
13959;SDS011;7052;51.050;3.716;2023-03-11T07:41:14;10.77;;;5.13;;
13959;SDS011;7052;51.050;3.716;2023-03-11T07:43:41;8.52;;;5.03;;
13959;SDS011;7052;51.050;3.716;2023-03-11T07:46:15;9.80;;;4.77;;
13959;SDS011;7052;51.050;3.716;2023-03-11T07:48:47;9.83;;;5.07;;
13959;SDS011;7052;51.050;3.716;2023-03-11T07:51:18;11.02;;;5.20;;
13959;SDS011;7052;51.050;3.716;2023-03-11T07:53:46;6.77;;;4.47;;
13959;SDS011;7052;51.050;3.716;2023-03-11T07:56:17;11.07;;;4.37;;
13959;SDS011;7052;51.050;3.716;2023-03-11T07:58:45;6.33;;;3.80;;
13959;SDS011;7052;51.050;3.716;2023-03-11T08:01:14;8.23;;;4.73;;
13959;SDS011;7052;51.050;3.716;2023-03-11T08:03:43;9.90;;;4.60;;
13959;SDS011;7052;51.050;3.716;2023-03-11T08:06:11;13.37;;;4.57;;
13959;SDS011;7052;51.050;3.716;2023-03-11T08:08:39;9.87;;;4.10;;
13959;SDS011;7052;51.050;3.716;2023-03-11T08:11:07;9.47;;;4.23;;
13959;SDS011;7052;51.050;3.716;2023-03-11T08:13:35;16.00;;;4.50;;
13959;SDS011;7052;51.050;3.716;2023-03-11T08:16:02;9.70;;;4.27;;
13959;SDS011;7052;51.050;3.716;2023-03-11T08:18:32;9.13;;;4.10;;
13959;SDS011;7052;51.050;3.716;2023-03-11T08:21:03;6.43;;;3.70;;
13959;SDS011;7052;51.050;3.716;2023-03-11T08:23:31;8.00;;;4.53;;
13959;SDS011;7052;51.050;3.716;2023-03-11T08:25:57;6.50;;;3.63;;
13959;SDS011;7052;51.050;3.716;2023-03-11T08:28:27;7.33;;;3.60;;
13959;SDS011;7052;51.050;3.716;2023-03-11T08:30:55;4.53;;;3.67;;
13959;SDS011;7052;51.050;3.716;2023-03-11T08:33:27;7.87;;;4.37;;
13959;SDS011;7052;51.050;3.716;2023-03-11T08:36:01;7.83;;;3.97;;
13959;SDS011;7052;51.050;3.716;2023-03-11T08:38:28;7.83;;;4.07;;
13959;SDS011;7052;51.050;3.716;2023-03-11T08:40:55;8.50;;;3.83;;
13959;SDS011;7052;51.050;3.716;2023-03-11T08:43:22;8.00;;;3.93;;
13959;SDS011;7052;51.050;3.716;2023-03-11T08:45:51;8.03;;;3.80;;
13959;SDS011;7052;51.050;3.716;2023-03-11T08:48:18;6.63;;;3.90;;
13959;SDS011;7052;51.050;3.716;2023-03-11T08:53:22;5.70;;;3.63;;
13959;SDS011;7052;51.050;3.716;2023-03-11T08:55:51;7.50;;;3.70;;
13959;SDS011;7052;51.050;3.716;2023-03-11T08:58:18;7.93;;;3.23;;
13959;SDS011;7052;51.050;3.716;2023-03-11T09:00:52;7.23;;;3.70;;
13959;SDS011;7052;51.050;3.716;2023-03-11T09:03:20;10.93;;;3.83;;
13959;SDS011;7052;51.050;3.716;2023-03-11T09:05:57;5.07;;;2.87;;
13959;SDS011;7052;51.050;3.716;2023-03-11T09:08:28;8.27;;;3.10;;
13959;SDS011;7052;51.050;3.716;2023-03-11T09:10:55;9.73;;;3.20;;
13959;SDS011;7052;51.050;3.716;2023-03-11T09:13:25;7.47;;;3.43;;
13959;SDS011;7052;51.050;3.716;2023-03-11T09:15:53;8.23;;;3.30;;
13959;SDS011;7052;51.050;3.716;2023-03-11T09:18:23;9.50;;;3.20;;
13959;SDS011;7052;51.050;3.716;2023-03-11T09:20:50;10.03;;;3.43;;
13959;SDS011;7052;51.050;3.716;2023-03-11T09:23:22;10.40;;;3.30;;
13959;SDS011;7052;51.050;3.716;2023-03-11T09:25:51;5.20;;;2.87;;
13959;SDS011;7052;51.050;3.716;2023-03-11T09:28:18;11.53;;;3.50;;
13959;SDS011;7052;51.050;3.716;2023-03-11T09:30:47;9.90;;;4.00;;
13959;SDS011;7052;51.050;3.716;2023-03-11T09:33:14;7.97;;;2.90;;
13959;SDS011;7052;51.050;3.716;2023-03-11T09:35:43;9.50;;;3.07;;
13959;SDS011;7052;51.050;3.716;2023-03-11T09:38:12;8.73;;;3.13;;
13959;SDS011;7052;51.050;3.716;2023-03-11T09:40:45;6.93;;;2.50;;
13959;SDS011;7052;51.050;3.716;2023-03-11T09:43:27;18.27;;;2.90;;
13959;SDS011;7052;51.050;3.716;2023-03-11T09:46:16;8.40;;;2.50;;
13959;SDS011;7052;51.050;3.716;2023-03-11T09:49:08;12.63;;;2.97;;
13959;SDS011;7052;51.050;3.716;2023-03-11T09:51:44;7.33;;;2.70;;
13959;SDS011;7052;51.050;3.716;2023-03-11T09:54:18;14.27;;;2.90;;
13959;SDS011;7052;51.050;3.716;2023-03-11T09:56:50;10.93;;;2.40;;
13959;SDS011;7052;51.050;3.716;2023-03-11T09:59:20;10.47;;;4.13;;
13959;SDS011;7052;51.050;3.716;2023-03-11T10:01:53;7.53;;;2.47;;
13959;SDS011;7052;51.050;3.716;2023-03-11T10:04:23;9.67;;;2.50;;
13959;SDS011;7052;51.050;3.716;2023-03-11T10:06:58;6.33;;;2.20;;
13959;SDS011;7052;51.050;3.716;2023-03-11T10:09:32;10.33;;;2.63;;
13959;SDS011;7052;51.050;3.716;2023-03-11T10:12:08;11.77;;;2.80;;
13959;SDS011;7052;51.050;3.716;2023-03-11T10:14:52;14.97;;;3.17;;
13959;SDS011;7052;51.050;3.716;2023-03-11T10:17:44;10.37;;;2.63;;
13959;SDS011;7052;51.050;3.716;2023-03-11T10:20:30;4.47;;;2.03;;
13959;SDS011;7052;51.050;3.716;2023-03-11T10:23:08;9.53;;;2.83;;
13959;SDS011;7052;51.050;3.716;2023-03-11T10:25:48;25.77;;;3.80;;
13959;SDS011;7052;51.050;3.716;2023-03-11T10:28:23;8.87;;;2.33;;
13959;SDS011;7052;51.050;3.716;2023-03-11T10:30:54;18.90;;;4.07;;
13959;SDS011;7052;51.050;3.716;2023-03-11T10:33:27;13.93;;;3.30;;
13959;SDS011;7052;51.050;3.716;2023-03-11T10:36:03;24.43;;;3.63;;
13959;SDS011;7052;51.050;3.716;2023-03-11T10:38:36;29.73;;;4.57;;
13959;SDS011;7052;51.050;3.716;2023-03-11T10:41:12;22.97;;;3.37;;
13959;SDS011;7052;51.050;3.716;2023-03-11T10:43:45;13.73;;;2.27;;
13959;SDS011;7052;51.050;3.716;2023-03-11T10:46:48;15.10;;;3.00;;
13959;SDS011;7052;51.050;3.716;2023-03-11T10:49:17;6.90;;;2.33;;
13959;SDS011;7052;51.050;3.716;2023-03-11T10:51:44;21.53;;;3.57;;
13959;SDS011;7052;51.050;3.716;2023-03-11T10:54:26;6.20;;;2.10;;
13959;SDS011;7052;51.050;3.716;2023-03-11T10:56:56;11.37;;;2.50;;
13959;SDS011;7052;51.050;3.716;2023-03-11T10:59:28;47.80;;;6.37;;
13959;SDS011;7052;51.050;3.716;2023-03-11T11:02:00;13.67;;;2.67;;
13959;SDS011;7052;51.050;3.716;2023-03-11T11:04:30;5.40;;;1.83;;
13959;SDS011;7052;51.050;3.716;2023-03-11T11:07:18;18.53;;;3.53;;
13959;SDS011;7052;51.050;3.716;2023-03-11T11:09:56;20.67;;;3.43;;
13959;SDS011;7052;51.050;3.716;2023-03-11T11:15:28;12.27;;;6.00;;
13959;SDS011;7052;51.050;3.716;2023-03-11T11:17:57;16.47;;;4.87;;
13959;SDS011;7052;51.050;3.716;2023-03-11T11:20:29;13.67;;;3.40;;
13959;SDS011;7052;51.050;3.716;2023-03-11T11:22:58;12.17;;;2.70;;
13959;SDS011;7052;51.050;3.716;2023-03-11T11:25:28;9.80;;;2.77;;
13959;SDS011;7052;51.050;3.716;2023-03-11T11:27:58;12.80;;;2.67;;
13959;SDS011;7052;51.050;3.716;2023-03-11T11:30:27;15.17;;;3.27;;
13959;SDS011;7052;51.050;3.716;2023-03-11T11:32:55;13.97;;;3.30;;
13959;SDS011;7052;51.050;3.716;2023-03-11T11:35:34;30.93;;;4.47;;
13959;SDS011;7052;51.050;3.716;2023-03-11T11:38:15;16.67;;;2.90;;
13959;SDS011;7052;51.050;3.716;2023-03-11T11:40:42;9.07;;;2.10;;
13959;SDS011;7052;51.050;3.716;2023-03-11T11:43:10;9.03;;;2.37;;
13959;SDS011;7052;51.050;3.716;2023-03-11T11:45:48;4.77;;;2.07;;
13959;SDS011;7052;51.050;3.716;2023-03-11T11:48:23;25.00;;;4.30;;
13959;SDS011;7052;51.050;3.716;2023-03-11T11:50:59;7.30;;;2.47;;
13959;SDS011;7052;51.050;3.716;2023-03-11T11:53:34;20.50;;;3.43;;
13959;SDS011;7052;51.050;3.716;2023-03-11T11:56:06;9.27;;;2.20;;
13959;SDS011;7052;51.050;3.716;2023-03-11T11:58:39;7.23;;;2.23;;
13959;SDS011;7052;51.050;3.716;2023-03-11T12:01:18;7.37;;;2.40;;
13959;SDS011;7052;51.050;3.716;2023-03-11T12:04:06;5.07;;;2.17;;
13959;SDS011;7052;51.050;3.716;2023-03-11T12:06:57;7.80;;;2.27;;
13959;SDS011;7052;51.050;3.716;2023-03-11T12:09:45;7.07;;;2.10;;
13959;SDS011;7052;51.050;3.716;2023-03-11T12:12:26;22.87;;;4.87;;
13959;SDS011;7052;51.050;3.716;2023-03-11T12:15:02;10.00;;;2.70;;
13959;SDS011;7052;51.050;3.716;2023-03-11T12:17:39;6.50;;;2.10;;
13959;SDS011;7052;51.050;3.716;2023-03-11T12:20:11;2.87;;;1.70;;
13959;SDS011;7052;51.050;3.716;2023-03-11T12:22:57;7.73;;;2.00;;
13959;SDS011;7052;51.050;3.716;2023-03-11T12:25:41;8.27;;;2.73;;
13959;SDS011;7052;51.050;3.716;2023-03-11T12:28:30;4.90;;;1.83;;
13959;SDS011;7052;51.050;3.716;2023-03-11T12:31:04;3.43;;;1.63;;
13959;SDS011;7052;51.050;3.716;2023-03-11T12:33:37;9.40;;;1.90;;
13959;SDS011;7052;51.050;3.716;2023-03-11T12:36:06;11.87;;;2.60;;
13959;SDS011;7052;51.050;3.716;2023-03-11T12:38:45;12.17;;;2.20;;
13959;SDS011;7052;51.050;3.716;2023-03-11T12:41:25;13.00;;;3.00;;
13959;SDS011;7052;51.050;3.716;2023-03-11T12:44:19;6.17;;;1.90;;
13959;SDS011;7052;51.050;3.716;2023-03-11T12:47:00;7.47;;;2.30;;
13959;SDS011;7052;51.050;3.716;2023-03-11T12:49:33;7.57;;;2.00;;
13959;SDS011;7052;51.050;3.716;2023-03-11T12:52:04;20.37;;;4.00;;
13959;SDS011;7052;51.050;3.716;2023-03-11T12:54:44;3.47;;;1.43;;
13959;SDS011;7052;51.050;3.716;2023-03-11T12:57:24;10.37;;;2.13;;
13959;SDS011;7052;51.050;3.716;2023-03-11T13:00:15;7.00;;;2.10;;
13959;SDS011;7052;51.050;3.716;2023-03-11T13:03:07;11.27;;;2.20;;
13959;SDS011;7052;51.050;3.716;2023-03-11T13:06:01;7.03;;;1.90;;
13959;SDS011;7052;51.050;3.716;2023-03-11T13:08:43;13.67;;;2.83;;
13959;SDS011;7052;51.050;3.716;2023-03-11T13:14:20;7.13;;;1.90;;
13959;SDS011;7052;51.050;3.716;2023-03-11T13:16:55;9.73;;;2.40;;
13959;SDS011;7052;51.050;3.716;2023-03-11T13:23:17;4.90;;;1.67;;
13959;SDS011;7052;51.050;3.716;2023-03-11T13:29:06;4.63;;;1.90;;
13959;SDS011;7052;51.050;3.716;2023-03-11T13:32:00;5.23;;;2.27;;
13959;SDS011;7052;51.050;3.716;2023-03-11T13:35:05;11.00;;;2.50;;
13959;SDS011;7052;51.050;3.716;2023-03-11T13:38:04;5.73;;;2.27;;
13959;SDS011;7052;51.050;3.716;2023-03-11T13:40:43;4.63;;;2.50;;
13959;SDS011;7052;51.050;3.716;2023-03-11T13:43:13;6.13;;;2.47;;
13959;SDS011;7052;51.050;3.716;2023-03-11T13:45:45;5.33;;;2.17;;
13959;SDS011;7052;51.050;3.716;2023-03-11T13:48:18;7.47;;;2.17;;
13959;SDS011;7052;51.050;3.716;2023-03-11T13:50:52;7.73;;;2.43;;
13959;SDS011;7052;51.050;3.716;2023-03-11T13:53:29;3.87;;;2.27;;
13959;SDS011;7052;51.050;3.716;2023-03-11T13:56:01;12.97;;;2.70;;
13959;SDS011;7052;51.050;3.716;2023-03-11T13:58:31;5.20;;;2.20;;
13959;SDS011;7052;51.050;3.716;2023-03-11T14:01:00;3.23;;;1.80;;
13959;SDS011;7052;51.050;3.716;2023-03-11T14:03:30;6.03;;;2.23;;
13959;SDS011;7052;51.050;3.716;2023-03-11T14:06:04;18.67;;;3.90;;
13959;SDS011;7052;51.050;3.716;2023-03-11T14:08:35;7.17;;;2.13;;
13959;SDS011;7052;51.050;3.716;2023-03-11T14:11:12;13.60;;;2.90;;
13959;SDS011;7052;51.050;3.716;2023-03-11T14:13:48;7.07;;;2.43;;
13959;SDS011;7052;51.050;3.716;2023-03-11T14:16:20;9.07;;;2.50;;
13959;SDS011;7052;51.050;3.716;2023-03-11T14:19:04;11.50;;;2.30;;
13959;SDS011;7052;51.050;3.716;2023-03-11T14:21:44;5.83;;;2.17;;
13959;SDS011;7052;51.050;3.716;2023-03-11T14:24:24;7.47;;;2.20;;
13959;SDS011;7052;51.050;3.716;2023-03-11T14:26:57;5.93;;;2.30;;
13959;SDS011;7052;51.050;3.716;2023-03-11T14:29:29;8.13;;;2.57;;
13959;SDS011;7052;51.050;3.716;2023-03-11T14:32:16;7.67;;;2.40;;
13959;SDS011;7052;51.050;3.716;2023-03-11T14:35:17;9.60;;;2.67;;
13959;SDS011;7052;51.050;3.716;2023-03-11T14:37:46;7.33;;;2.57;;
13959;SDS011;7052;51.050;3.716;2023-03-11T14:40:22;7.67;;;2.80;;
13959;SDS011;7052;51.050;3.716;2023-03-11T14:42:53;4.70;;;2.10;;
13959;SDS011;7052;51.050;3.716;2023-03-11T14:45:27;6.40;;;2.23;;
13959;SDS011;7052;51.050;3.716;2023-03-11T14:47:58;6.23;;;2.37;;
13959;SDS011;7052;51.050;3.716;2023-03-11T14:50:36;3.10;;;1.80;;
13959;SDS011;7052;51.050;3.716;2023-03-11T14:53:11;7.30;;;2.17;;
13959;SDS011;7052;51.050;3.716;2023-03-11T14:55:49;6.87;;;2.60;;
13959;SDS011;7052;51.050;3.716;2023-03-11T14:58:26;7.33;;;2.30;;
13959;SDS011;7052;51.050;3.716;2023-03-11T15:01:12;7.00;;;2.23;;
13959;SDS011;7052;51.050;3.716;2023-03-11T15:03:47;7.13;;;4.20;;
13959;SDS011;7052;51.050;3.716;2023-03-11T15:06:22;7.23;;;2.27;;
13959;SDS011;7052;51.050;3.716;2023-03-11T15:09:06;7.23;;;1.90;;
13959;SDS011;7052;51.050;3.716;2023-03-11T15:11:48;15.57;;;3.20;;
13959;SDS011;7052;51.050;3.716;2023-03-11T15:14:19;6.17;;;2.70;;
13959;SDS011;7052;51.050;3.716;2023-03-11T15:17:08;10.30;;;4.73;;
13959;SDS011;7052;51.050;3.716;2023-03-11T15:19:40;5.23;;;2.30;;
13959;SDS011;7052;51.050;3.716;2023-03-11T15:22:20;12.63;;;3.30;;
13959;SDS011;7052;51.050;3.716;2023-03-11T15:24:52;7.93;;;2.20;;
13959;SDS011;7052;51.050;3.716;2023-03-11T15:27:35;7.40;;;2.30;;
13959;SDS011;7052;51.050;3.716;2023-03-11T15:30:14;9.17;;;2.40;;
13959;SDS011;7052;51.050;3.716;2023-03-11T15:32:44;14.57;;;3.50;;
13959;SDS011;7052;51.050;3.716;2023-03-11T15:35:15;8.30;;;2.77;;
13959;SDS011;7052;51.050;3.716;2023-03-11T15:40:39;18.07;;;3.17;;
13959;SDS011;7052;51.050;3.716;2023-03-11T15:43:32;10.97;;;2.40;;
13959;SDS011;7052;51.050;3.716;2023-03-11T15:46:08;9.50;;;2.43;;